Time;durP1;ratioP1;P1;durP2;ratioP2;P2;SDS_P1;SDS_P2;PMS_P1;PMS_P2;Temp;Humidity;BMP_temperature;BMP_pressure;BME280_temperature;BME280_humidity;BME280_pressure;Samples;Min_cycle;Max_cycle;Signal;HPM_P1;HPM_P2
2021/08/20 00:17:55;;;;;;;3.70;2.37;;;16.80;99.90;;;;;;5029131;28;20659;-96
2021/08/20 00:20:23;;;;;;;4.87;2.87;;;16.70;99.90;;;;;;5027554;28;20643;-96
2021/08/20 00:22:51;;;;;;;2.90;2.30;;;16.70;99.90;;;;;;5009829;28;20651;-96
2021/08/20 01:14:52;;;;;;;2.73;2.53;;;16.70;99.90;;;;;;4998304;28;20668;-96
2021/08/20 01:40:43;;;;;;;3.80;3.50;;;16.70;99.90;;;;;;5281142;23;20655;-96
2021/08/20 01:43:12;;;;;;;4.43;4.13;;;16.70;99.90;;;;;;5033856;28;20638;-96
2021/08/20 01:45:44;;;;;;;3.87;3.50;;;16.70;99.90;;;;;;5032536;28;20631;-96
2021/08/20 01:48:32;;;;;;;4.60;3.67;;;16.80;99.90;;;;;;5020260;28;20639;-96
2021/08/20 01:51:46;;;;;;;3.67;3.27;;;16.80;99.90;;;;;;5040584;28;20639;-96
2021/08/20 03:12:09;;;;;;;3.70;3.40;;;16.80;99.90;;;;;;5049965;28;20674;-96
2021/08/20 03:30:41;;;;;;;4.50;3.80;;;16.80;99.90;;;;;;5672029;23;20636;-91
2021/08/20 03:33:15;;;;;;;3.13;2.87;;;16.80;99.90;;;;;;4999066;28;20629;-90
2021/08/20 03:35:45;;;;;;;3.90;3.50;;;16.80;99.90;;;;;;5000631;28;20578;-91
2021/08/20 03:38:15;;;;;;;4.40;3.27;;;16.90;99.90;;;;;;5001047;28;20543;-90
2021/08/20 04:57:33;;;;;;;4.30;3.90;;;16.70;99.90;;;;;;5019031;28;20709;-96
2021/08/20 05:00:18;;;;;;;4.63;4.07;;;16.70;99.90;;;;;;5032029;28;20689;-96
2021/08/20 05:03:09;;;;;;;3.60;3.07;;;16.70;99.90;;;;;;5027563;28;20592;-95
2021/08/20 05:05:39;;;;;;;3.80;3.50;;;16.70;99.90;;;;;;5028822;28;20659;-96
2021/08/20 05:08:10;;;;;;;3.20;2.90;;;16.80;99.90;;;;;;5034684;28;20650;-96
2021/08/20 05:10:42;;;;;;;4.70;4.30;;;16.80;99.90;;;;;;5030581;28;20707;-96
2021/08/20 05:36:52;;;;;;;5.00;4.50;;;17.10;99.90;;;;;;5075085;28;20656;-96
2021/08/20 05:43:18;;;;;;;5.43;4.00;;;17.10;99.90;;;;;;5098367;28;20567;-96
2021/08/20 05:46:07;;;;;;;3.83;3.53;;;17.20;99.90;;;;;;5099110;28;20659;-96
2021/08/20 05:48:52;;;;;;;4.97;3.80;;;17.20;99.90;;;;;;5093934;28;20626;-96
2021/08/20 05:51:31;;;;;;;4.50;4.10;;;17.30;99.90;;;;;;5086875;28;20613;-96
2021/08/20 05:54:10;;;;;;;4.10;3.80;;;17.40;99.90;;;;;;5064693;28;20660;-96
2021/08/20 05:57:09;;;;;;;5.03;4.53;;;17.50;99.90;;;;;;5085279;28;20617;-96
2021/08/20 05:59:37;;;;;;;5.37;3.97;;;17.50;99.90;;;;;;5096974;28;20668;-96
2021/08/20 06:02:08;;;;;;;6.43;3.00;;;17.60;99.90;;;;;;5099570;28;20625;-96
2021/08/20 06:04:36;;;;;;;6.43;3.20;;;17.80;99.90;;;;;;5095020;28;20679;-96
2021/08/20 06:07:05;;;;;;;4.20;3.00;;;17.80;99.90;;;;;;5096293;28;20609;-95
2021/08/20 06:09:50;;;;;;;4.50;3.53;;;17.70;99.90;;;;;;5071930;28;20676;-96
2021/08/20 06:22:40;;;;;;;3.80;3.50;;;17.90;99.90;;;;;;6051137;23;20890;-91
2021/08/20 06:25:11;;;;;;;4.80;3.27;;;18.00;99.90;;;;;;5069742;28;21057;-93
2021/08/20 06:27:38;;;;;;;8.50;3.77;;;18.00;99.90;;;;;;5050986;28;20701;-95
2021/08/20 06:30:07;;;;;;;5.00;4.30;;;18.00;99.90;;;;;;5045008;28;20648;-94
2021/08/20 06:32:36;;;;;;;3.03;2.83;;;18.20;99.90;;;;;;5017103;28;20662;-92
2021/08/20 06:35:03;;;;;;;6.03;3.13;;;18.30;99.90;;;;;;5023457;28;20627;-93
2021/08/20 06:37:30;;;;;;;3.70;3.40;;;18.40;99.90;;;;;;5022985;28;20640;-93
2021/08/20 06:39:57;;;;;;;3.97;3.67;;;18.60;99.90;;;;;;5028412;28;20673;-93
2021/08/20 06:42:25;;;;;;;5.20;3.43;;;18.70;99.90;;;;;;5030317;28;20662;-92
2021/08/20 06:44:52;;;;;;;6.10;3.00;;;18.90;99.90;;;;;;5029498;28;20615;-92
2021/08/20 06:47:19;;;;;;;4.13;3.50;;;18.80;99.90;;;;;;5033025;28;20633;-92
2021/08/20 06:49:45;;;;;;;3.37;3.07;;;18.80;99.90;;;;;;5028291;28;20627;-92
2021/08/20 06:52:12;;;;;;;5.80;4.10;;;18.90;99.90;;;;;;5030074;28;20654;-93
2021/08/20 06:54:39;;;;;;;4.47;4.03;;;18.90;99.90;;;;;;5021956;28;20987;-92
2021/08/20 06:57:07;;;;;;;5.20;3.93;;;19.10;99.90;;;;;;5035089;28;20609;-93
2021/08/20 06:59:40;;;;;;;4.83;3.47;;;19.20;99.90;;;;;;5033192;28;20634;-96
2021/08/20 07:02:08;;;;;;;7.20;3.40;;;19.10;99.90;;;;;;5030141;28;20669;-96
2021/08/20 07:04:36;;;;;;;3.70;3.40;;;19.30;99.90;;;;;;5029960;28;20730;-96
2021/08/20 07:07:04;;;;;;;3.73;3.23;;;19.30;99.90;;;;;;5027926;28;20726;-96
2021/08/20 07:09:31;;;;;;;3.83;3.03;;;19.30;99.90;;;;;;5024547;28;20630;-95
2021/08/20 07:12:05;;;;;;;3.97;3.67;;;19.30;99.90;;;;;;5028463;28;20731;-96
2021/08/20 07:14:50;;;;;;;4.20;3.30;;;19.40;99.90;;;;;;5035190;28;20673;-96
2021/08/20 07:17:17;;;;;;;4.43;3.83;;;19.70;99.90;;;;;;5034513;28;20639;-96
2021/08/20 07:19:45;;;;;;;4.00;3.60;;;19.60;99.90;;;;;;5041690;28;20634;-96
2021/08/20 07:22:22;;;;;;;5.37;4.97;;;19.70;99.90;;;;;;5050180;28;20673;-95
2021/08/20 07:24:49;;;;;;;4.63;3.83;;;19.70;99.90;;;;;;5041644;28;20636;-95
2021/08/20 07:27:16;;;;;;;6.47;3.90;;;19.80;99.90;;;;;;5054679;28;20718;-95
2021/08/20 07:29:45;;;;;;;5.63;4.80;;;20.00;99.90;;;;;;5043661;28;20650;-96
2021/08/20 07:32:13;;;;;;;6.50;5.17;;;19.90;99.90;;;;;;5034171;28;20631;-95
2021/08/20 07:34:40;;;;;;;5.33;4.83;;;19.90;99.90;;;;;;5046732;28;20734;-95
2021/08/20 07:37:07;;;;;;;7.40;5.10;;;19.90;99.90;;;;;;5045194;28;20729;-95
2021/08/20 07:39:36;;;;;;;12.20;4.67;;;20.10;99.90;;;;;;5037359;28;20619;-95
2021/08/20 07:42:04;;;;;;;8.00;6.00;;;20.50;99.90;;;;;;5027043;28;20666;-95
2021/08/20 07:44:31;;;;;;;6.90;4.77;;;20.30;99.90;;;;;;5026546;28;20698;-95
2021/08/20 07:47:05;;;;;;;5.40;4.90;;;20.40;99.90;;;;;;5027752;28;20630;-95
2021/08/20 07:49:32;;;;;;;6.07;5.40;;;20.60;99.90;;;;;;5022858;28;20636;-95
2021/08/20 07:52:09;;;;;;;6.00;5.37;;;20.70;99.90;;;;;;5024803;28;20754;-96
2021/08/20 07:54:36;;;;;;;6.70;5.57;;;20.70;99.90;;;;;;5026956;28;20658;-96
2021/08/20 07:57:09;;;;;;;7.30;5.80;;;20.60;99.90;;;;;;5034130;28;20990;-95
2021/08/20 07:59:36;;;;;;;6.40;5.03;;;20.60;99.90;;;;;;5041990;28;20649;-95
2021/08/20 08:02:05;;;;;;;10.30;6.50;;;20.70;99.90;;;;;;5037089;28;20682;-96
2021/08/20 08:04:53;;;;;;;7.47;6.47;;;20.90;99.90;;;;;;5030168;28;20657;-96
2021/08/20 08:07:20;;;;;;;7.63;5.80;;;21.10;99.90;;;;;;5039627;28;20726;-95
2021/08/20 08:09:47;;;;;;;7.70;6.10;;;21.30;99.90;;;;;;5035116;28;20711;-94
2021/08/20 08:12:15;;;;;;;5.73;5.23;;;21.20;99.90;;;;;;5028229;28;20652;-95
2021/08/20 08:14:42;;;;;;;8.73;5.47;;;21.30;99.90;;;;;;5024569;28;20693;-95
2021/08/20 08:17:12;;;;;;;7.10;6.40;;;21.50;99.90;;;;;;5016413;28;20684;-96
2021/08/20 08:19:40;;;;;;;6.40;5.80;;;21.50;99.90;;;;;;5023054;28;20635;-95
2021/08/20 08:22:08;;;;;;;5.40;5.00;;;21.90;99.90;;;;;;5023841;28;21112;-96
2021/08/20 08:24:34;;;;;;;7.87;5.90;;;21.90;99.90;;;;;;5021920;28;20659;-96
2021/08/20 08:29:53;;;;;;;7.00;6.23;;;22.30;99.90;;;;;;5025422;28;20626;-95
2021/08/20 08:32:24;;;;;;;5.67;5.17;;;22.00;99.90;;;;;;5024072;28;20646;-94
2021/08/20 08:34:51;;;;;;;5.60;5.20;;;21.90;99.90;;;;;;5024233;28;20659;-95
2021/08/20 08:37:22;;;;;;;6.30;5.73;;;21.90;99.90;;;;;;5022318;28;20689;-95
2021/08/20 08:39:49;;;;;;;5.73;5.23;;;22.00;99.90;;;;;;5022603;28;21173;-96
2021/08/20 08:42:17;;;;;;;6.40;5.80;;;22.10;99.90;;;;;;5026211;28;20705;-95
2021/08/20 08:44:44;;;;;;;6.33;5.57;;;22.40;99.90;;;;;;5028392;28;20632;-95
2021/08/20 08:47:21;;;;;;;6.00;5.50;;;22.30;99.90;;;;;;5026171;28;21234;-95
2021/08/20 08:49:52;;;;;;;7.90;5.00;;;22.30;99.90;;;;;;5033984;28;20639;-94
2021/08/20 08:52:19;;;;;;;7.30;5.47;;;22.50;99.90;;;;;;5027883;28;21194;-94
2021/08/20 08:54:46;;;;;;;6.23;5.63;;;23.10;99.90;;;;;;5027191;28;20787;-95
2021/08/20 08:57:18;;;;;;;6.23;5.60;;;23.10;99.90;;;;;;5025490;28;20659;-94
2021/08/20 08:59:45;;;;;;;6.37;5.77;;;22.50;99.90;;;;;;5027186;28;20643;-95
2021/08/20 09:02:22;;;;;;;5.60;5.10;;;22.40;99.90;;;;;;5030322;28;20710;-95
2021/08/20 09:04:58;;;;;;;5.53;5.00;;;22.10;99.90;;;;;;5026286;28;20641;-93
2021/08/20 09:07:26;;;;;;;5.20;4.70;;;22.30;99.90;;;;;;5017746;28;20669;-95
2021/08/20 09:10:13;;;;;;;5.10;4.37;;;22.20;99.90;;;;;;5025474;28;20641;-93
2021/08/20 09:12:42;;;;;;;5.30;4.77;;;22.10;99.90;;;;;;5028204;28;20631;-94
2021/08/20 09:15:10;;;;;;;7.60;5.43;;;22.10;99.90;;;;;;5025142;28;20650;-94
2021/08/20 09:17:37;;;;;;;4.87;4.47;;;22.50;99.90;;;;;;5022632;28;21295;-94
2021/08/20 09:20:16;;;;;;;8.63;5.00;;;22.60;99.90;;;;;;5022537;28;20639;-94
2021/08/20 09:22:43;;;;;;;5.23;4.60;;;22.80;99.90;;;;;;5026044;28;20632;-94
2021/08/20 09:25:33;;;;;;;6.20;4.90;;;22.90;99.90;;;;;;5036041;28;20711;-94
2021/08/20 09:28:20;;;;;;;5.47;4.70;;;22.60;99.90;;;;;;5039541;28;20627;-95
2021/08/20 09:31:09;;;;;;;5.93;5.33;;;22.70;99.90;;;;;;5026594;28;20665;-96
2021/08/20 09:33:38;;;;;;;9.03;5.30;;;22.70;99.90;;;;;;5028712;28;20737;-96
2021/08/20 09:36:09;;;;;;;5.73;5.23;;;22.90;99.90;;;;;;5022942;28;20717;-96
2021/08/20 09:38:37;;;;;;;6.17;4.80;;;22.60;99.90;;;;;;5027991;28;20977;-95
2021/08/20 09:41:08;;;;;;;5.30;4.90;;;23.10;99.90;;;;;;5030360;28;20636;-95
2021/08/20 09:43:37;;;;;;;6.40;4.87;;;23.80;99.90;;;;;;5033314;28;20633;-95
2021/08/20 09:46:10;;;;;;;4.57;4.17;;;24.10;99.90;;;;;;5038994;28;20631;-95
2021/08/20 09:48:50;;;;;;;7.13;4.53;;;23.80;99.90;;;;;;5041459;28;20685;-96
2021/08/20 09:51:44;;;;;;;12.30;6.77;;;23.20;99.90;;;;;;5047593;28;20619;-95
2021/08/20 09:54:14;;;;;;;7.00;5.40;;;23.10;99.90;;;;;;5033551;28;20659;-95
2021/08/20 09:56:43;;;;;;;5.67;5.13;;;22.90;99.90;;;;;;5038911;28;20625;-95
2021/08/20 09:59:11;;;;;;;5.60;5.10;;;22.60;99.90;;;;;;5030792;28;20635;-95
2021/08/20 10:01:40;;;;;;;6.40;5.90;;;22.60;99.90;;;;;;5030801;28;20748;-95
2021/08/20 10:04:09;;;;;;;6.60;6.00;;;22.70;99.90;;;;;;5032618;28;20650;-96
2021/08/20 10:06:38;;;;;;;7.47;6.50;;;23.10;99.90;;;;;;5049563;28;20627;-95
2021/08/20 10:09:09;;;;;;;9.50;6.57;;;23.00;99.90;;;;;;5041062;28;21224;-95
2021/08/20 10:11:39;;;;;;;6.20;5.60;;;23.00;99.90;;;;;;5049766;28;20677;-96
2021/08/20 10:14:07;;;;;;;6.07;5.57;;;22.90;99.90;;;;;;5043774;28;20667;-95
2021/08/20 10:16:36;;;;;;;9.07;5.60;;;22.80;99.90;;;;;;5043142;28;20623;-95
2021/08/20 10:19:11;;;;;;;4.80;4.30;;;22.80;99.90;;;;;;5032454;28;20735;-96
2021/08/20 10:21:44;;;;;;;4.80;4.40;;;22.70;99.90;;;;;;5025936;28;20738;-94
2021/08/20 10:24:21;;;;;;;4.80;4.40;;;23.10;99.90;;;;;;5025138;28;20642;-96
2021/08/20 10:26:54;;;;;;;4.33;3.93;;;24.00;99.90;;;;;;5032944;28;20641;-96
2021/08/20 10:29:25;;;;;;;4.67;4.17;;;24.10;99.90;;;;;;5036913;28;20642;-96
2021/08/20 10:32:00;;;;;;;3.90;3.60;;;23.30;99.90;;;;;;5033558;28;20729;-94
2021/08/20 10:34:40;;;;;;;4.07;3.67;;;24.20;99.90;;;;;;5031211;28;20655;-94
2021/08/20 10:37:12;;;;;;;4.90;4.50;;;24.80;99.90;;;;;;5031224;28;20735;-93
2021/08/20 10:40:10;;;;;;;5.37;4.90;;;24.80;99.90;;;;;;5036375;28;20625;-96
2021/08/20 10:42:41;;;;;;;4.87;3.83;;;24.90;99.90;;;;;;5028009;28;21067;-96
2021/08/20 10:45:23;;;;;;;5.87;5.27;;;25.10;99.90;;;;;;5039555;28;20654;-96
2021/08/20 10:48:15;;;;;;;5.87;4.07;;;25.50;99.90;;;;;;5034971;28;20749;-96
2021/08/20 10:50:42;;;;;;;4.03;3.73;;;26.10;99.70;;;;;;5027821;28;21164;-96
2021/08/20 10:53:22;;;;;;;4.47;4.13;;;25.90;98.40;;;;;;5028560;28;21037;-96
2021/08/20 10:55:48;;;;;;;4.63;4.27;;;25.30;99.30;;;;;;5029219;28;20664;-96
2021/08/20 10:58:17;;;;;;;3.87;3.10;;;25.00;99.90;;;;;;5031179;28;20796;-96
2021/08/20 11:01:20;;;;;;;3.90;3.60;;;25.30;99.90;;;;;;5031313;28;20678;-96
2021/08/20 11:03:52;;;;;;;6.03;5.30;;;25.30;99.90;;;;;;5032677;28;20650;-96
2021/08/20 11:06:51;;;;;;;3.77;3.50;;;25.40;99.90;;;;;;5040155;28;20628;-96
2021/08/20 11:09:34;;;;;;;4.80;4.30;;;25.80;99.90;;;;;;5045521;28;20619;-96
2021/08/20 11:12:02;;;;;;;5.33;3.70;;;24.90;99.90;;;;;;5050205;28;20623;-96
2021/08/20 11:15:18;;;;;;;3.50;3.20;;;25.50;99.90;;;;;;5045134;28;20666;-96
2021/08/20 11:17:49;;;;;;;5.07;4.57;;;26.20;98.10;;;;;;5035441;28;20687;-95
2021/08/20 11:20:19;;;;;;;4.00;3.70;;;25.90;98.30;;;;;;5020634;28;20652;-96
2021/08/20 11:23:07;;;;;;;3.00;2.70;;;26.00;99.90;;;;;;5029701;28;20649;-96
2021/08/20 11:25:39;;;;;;;3.53;3.33;;;26.20;95.60;;;;;;5025716;28;20631;-96
2021/08/20 11:28:10;;;;;;;3.87;3.57;;;26.20;93.80;;;;;;5035963;28;20659;-96
2021/08/20 11:30:40;;;;;;;4.07;3.47;;;26.00;94.40;;;;;;5025683;28;20681;-96
2021/08/20 11:33:15;;;;;;;3.70;3.40;;;26.10;95.60;;;;;;5024938;28;20706;-95
2021/08/20 11:35:48;;;;;;;4.97;3.77;;;26.90;95.70;;;;;;5026645;28;21053;-93
2021/08/20 11:38:27;;;;;;;6.30;3.50;;;26.80;93.30;;;;;;5019843;28;20654;-94
2021/08/20 11:40:56;;;;;;;4.03;3.23;;;27.10;93.70;;;;;;5027070;28;20607;-93
2021/08/20 11:43:24;;;;;;;3.47;3.17;;;27.40;93.60;;;;;;5034378;28;20628;-92
2021/08/20 11:46:00;;;;;;;5.30;3.70;;;27.70;93.10;;;;;;5028978;28;20618;-93
2021/08/20 11:48:27;;;;;;;9.37;8.87;;;27.40;94.20;;;;;;5019117;28;20682;-93
2021/08/20 11:50:55;;;;;;;9.23;8.73;;;27.80;91.60;;;;;;5023779;28;20631;-94
2021/08/20 11:53:23;;;;;;;9.70;9.27;;;27.10;91.40;;;;;;5024634;28;20649;-93
2021/08/20 11:55:51;;;;;;;9.40;9.00;;;27.60;91.50;;;;;;5016996;28;20698;-93
2021/08/20 11:58:36;;;;;;;8.53;7.93;;;27.80;91.50;;;;;;5025392;28;20663;-93
2021/08/20 12:01:06;;;;;;;9.50;9.10;;;27.90;92.10;;;;;;5018706;28;20635;-93
2021/08/20 12:03:35;;;;;;;3.33;3.03;;;28.40;91.20;;;;;;5020290;28;21096;-95
2021/08/20 12:06:10;;;;;;;3.80;3.57;;;28.70;88.10;;;;;;5029834;28;20662;-93
2021/08/20 12:08:37;;;;;;;4.67;3.60;;;28.30;89.50;;;;;;5023507;28;20674;-95
2021/08/20 12:11:07;;;;;;;4.17;3.87;;;27.80;91.20;;;;;;5019384;28;20720;-96
2021/08/20 12:13:43;;;;;;;9.97;4.00;;;27.30;92.80;;;;;;5020448;28;20690;-95
2021/08/20 12:16:30;;;;;;;3.30;3.00;;;27.50;92.60;;;;;;5022016;28;20614;-95
2021/08/20 12:18:58;;;;;;;3.63;3.43;;;28.70;89.90;;;;;;5019407;28;21203;-96
2021/08/20 12:21:26;;;;;;;4.90;3.63;;;28.90;87.50;;;;;;5014060;28;20727;-95
2021/08/20 12:24:00;;;;;;;4.07;3.67;;;29.10;87.80;;;;;;5027687;28;20729;-95
2021/08/20 12:26:28;;;;;;;3.23;2.90;;;29.90;87.60;;;;;;5026492;28;20679;-95
2021/08/20 12:28:55;;;;;;;3.80;3.60;;;30.10;84.70;;;;;;5022211;28;20658;-95
2021/08/20 12:31:25;;;;;;;4.27;3.97;;;29.70;85.30;;;;;;5036337;28;20666;-95
2021/08/20 12:34:00;;;;;;;5.87;3.63;;;29.60;81.50;;;;;;5028313;28;20746;-95
2021/08/20 12:36:29;;;;;;;3.90;3.50;;;29.50;81.90;;;;;;5023410;28;20644;-96
2021/08/20 12:39:13;;;;;;;3.60;3.30;;;30.10;80.40;;;;;;5016739;28;20681;-96
2021/08/20 12:41:41;;;;;;;4.27;3.97;;;29.50;84.00;;;;;;5033745;28;20623;-93
2021/08/20 12:44:08;;;;;;;4.10;3.60;;;28.20;86.90;;;;;;5025973;28;20626;-94
2021/08/20 12:46:38;;;;;;;4.60;4.30;;;28.10;87.50;;;;;;5031421;28;20642;-95
2021/08/20 12:49:07;;;;;;;4.77;3.97;;;28.30;87.10;;;;;;5025638;28;20744;-94
2021/08/20 12:51:35;;;;;;;4.20;3.90;;;29.20;84.10;;;;;;5024078;28;20642;-94
2021/08/20 12:54:07;;;;;;;4.40;4.10;;;30.00;81.10;;;;;;5027008;28;20630;-94
2021/08/20 12:56:36;;;;;;;4.33;3.83;;;28.60;80.80;;;;;;5025042;28;20634;-94
2021/08/20 12:59:06;;;;;;;4.10;3.80;;;28.50;83.20;;;;;;5027931;28;20636;-93
2021/08/20 13:01:34;;;;;;;4.70;4.07;;;28.90;80.20;;;;;;5016460;28;20639;-93
2021/08/20 13:04:03;;;;;;;4.50;4.20;;;29.10;79.90;;;;;;5022284;28;20638;-93
2021/08/20 13:06:30;;;;;;;4.17;3.57;;;29.30;80.70;;;;;;5018624;28;20664;-92
2021/08/20 13:08:57;;;;;;;4.00;3.40;;;30.20;81.40;;;;;;5021608;28;20646;-94
2021/08/20 13:11:25;;;;;;;3.27;2.97;;;30.60;78.90;;;;;;5027037;28;21065;-94
2021/08/20 13:13:52;;;;;;;3.80;3.50;;;30.50;79.10;;;;;;5022489;28;20618;-93
2021/08/20 13:16:20;;;;;;;3.97;3.67;;;30.80;77.30;;;;;;5028636;28;20735;-93
2021/08/20 13:18:46;;;;;;;3.73;3.40;;;30.50;75.60;;;;;;5018245;28;20647;-93
2021/08/20 13:21:19;;;;;;;3.37;3.07;;;32.00;74.00;;;;;;5025076;28;21169;-93
2021/08/20 13:23:47;;;;;;;3.53;3.23;;;31.30;72.10;;;;;;5026964;28;20658;-94
2021/08/20 13:26:16;;;;;;;3.67;3.37;;;32.10;70.80;;;;;;5027747;28;20674;-94
2021/08/20 13:28:43;;;;;;;3.53;3.30;;;32.20;70.80;;;;;;5018437;28;20655;-93
2021/08/20 13:31:10;;;;;;;3.20;3.00;;;32.20;70.60;;;;;;5019616;28;20625;-92
2021/08/20 13:33:37;;;;;;;3.77;3.00;;;32.70;68.70;;;;;;5018284;28;20307;-93
2021/08/20 13:36:07;;;;;;;3.73;3.43;;;31.50;68.80;;;;;;5025074;28;20227;-92
2021/08/20 13:38:37;;;;;;;3.83;3.30;;;31.20;70.00;;;;;;5028261;28;20634;-93
2021/08/20 13:41:04;;;;;;;4.20;3.90;;;30.70;70.10;;;;;;5021993;28;20836;-93
2021/08/20 13:43:33;;;;;;;3.10;2.80;;;30.80;70.50;;;;;;5020452;28;20631;-92
2021/08/20 13:46:01;;;;;;;5.03;3.53;;;31.80;71.50;;;;;;5022829;28;20655;-93
2021/08/20 13:48:27;;;;;;;3.30;3.00;;;32.70;68.40;;;;;;5021681;28;20702;-94
2021/08/20 13:50:54;;;;;;;6.73;3.40;;;33.20;67.60;;;;;;5026260;28;20295;-93
2021/08/20 13:53:21;;;;;;;3.40;3.20;;;33.80;64.50;;;;;;5024641;28;20571;-93
2021/08/20 13:55:49;;;;;;;3.17;2.87;;;31.80;64.70;;;;;;5024541;28;20290;-92
2021/08/20 13:58:17;;;;;;;4.90;3.50;;;30.80;67.20;;;;;;5024898;28;20315;-93
2021/08/20 14:00:44;;;;;;;3.20;2.90;;;31.10;68.10;;;;;;5026736;28;20197;-93
2021/08/20 14:03:10;;;;;;;3.10;2.90;;;31.50;66.60;;;;;;5026868;28;20203;-94
2021/08/20 14:05:39;;;;;;;3.20;3.00;;;32.50;66.80;;;;;;5030069;28;20661;-93
2021/08/20 14:08:07;;;;;;;3.37;3.07;;;32.10;65.40;;;;;;5022155;28;20699;-94
2021/08/20 14:10:34;;;;;;;3.33;3.00;;;31.30;67.20;;;;;;5020590;28;20239;-94
2021/08/20 14:13:02;;;;;;;3.50;3.20;;;31.80;68.80;;;;;;5028064;28;20626;-93
2021/08/20 14:15:29;;;;;;;3.40;3.10;;;30.60;67.30;;;;;;5025577;28;20996;-91
2021/08/20 14:17:56;;;;;;;3.57;3.27;;;29.80;69.70;;;;;;5021519;28;20689;-92
2021/08/20 14:20:23;;;;;;;3.13;2.93;;;28.80;73.20;;;;;;5027159;28;20729;-92
2021/08/20 14:22:50;;;;;;;4.00;3.50;;;28.50;74.90;;;;;;5018820;28;20638;-92
2021/08/20 14:25:17;;;;;;;3.10;2.90;;;28.50;75.30;;;;;;5028195;28;20667;-93
2021/08/20 14:27:44;;;;;;;3.90;3.60;;;28.30;75.20;;;;;;5034647;28;20719;-93
2021/08/20 14:30:13;;;;;;;3.37;3.00;;;28.00;76.30;;;;;;5039756;28;20717;-92
2021/08/20 14:32:40;;;;;;;3.70;3.37;;;27.50;79.10;;;;;;5025423;28;20647;-93
2021/08/20 14:35:09;;;;;;;4.30;3.90;;;27.60;78.80;;;;;;5023930;28;20623;-94
2021/08/20 14:37:36;;;;;;;3.17;2.97;;;27.70;82.20;;;;;;5019684;28;20644;-93
2021/08/20 14:40:04;;;;;;;3.77;2.60;;;27.70;80.40;;;;;;5021563;28;20666;-93
2021/08/20 14:42:31;;;;;;;3.50;3.20;;;27.50;82.20;;;;;;5019778;28;20673;-93
2021/08/20 14:44:59;;;;;;;3.80;3.40;;;27.60;80.00;;;;;;5023332;28;20659;-93
2021/08/20 14:47:28;;;;;;;3.80;3.40;;;27.90;80.80;;;;;;5028780;28;20741;-94
2021/08/20 14:49:55;;;;;;;3.13;2.80;;;29.20;77.90;;;;;;5033542;28;20635;-93
2021/08/20 14:52:23;;;;;;;4.53;3.33;;;30.00;77.30;;;;;;5040597;28;20635;-94
2021/08/20 14:54:50;;;;;;;4.00;3.00;;;31.30;72.10;;;;;;5036381;28;20638;-92
2021/08/20 14:57:17;;;;;;;3.80;2.80;;;32.20;71.30;;;;;;5043129;28;20663;-93
2021/08/20 14:59:45;;;;;;;3.10;2.90;;;31.70;70.20;;;;;;5044767;28;20633;-94
2021/08/20 15:02:13;;;;;;;4.40;2.93;;;31.90;70.70;;;;;;5026849;28;20626;-93
2021/08/20 15:04:42;;;;;;;3.53;3.03;;;32.30;69.80;;;;;;5025442;28;20635;-93
2021/08/20 15:07:11;;;;;;;2.70;2.50;;;32.50;67.40;;;;;;5021775;28;20235;-92
2021/08/20 15:09:41;;;;;;;3.47;3.17;;;33.00;65.50;;;;;;5020362;28;20219;-93
2021/08/20 15:12:08;;;;;;;5.50;3.03;;;33.00;65.90;;;;;;5016976;28;20199;-93
2021/08/20 15:14:37;;;;;;;4.03;3.53;;;32.00;63.80;;;;;;5018290;28;20665;-94
2021/08/20 15:17:05;;;;;;;3.40;3.20;;;30.70;66.30;;;;;;5018088;28;20303;-92
2021/08/20 15:19:33;;;;;;;3.80;3.40;;;29.70;68.80;;;;;;5018659;28;20220;-94
2021/08/20 15:22:03;;;;;;;3.37;3.17;;;29.20;71.60;;;;;;5024953;28;21062;-93
2021/08/20 15:24:30;;;;;;;3.30;3.00;;;28.60;75.20;;;;;;5020503;28;20642;-93
2021/08/20 15:26:57;;;;;;;4.10;3.67;;;28.70;76.40;;;;;;5021553;28;20761;-93
2021/08/20 15:29:25;;;;;;;4.10;3.20;;;29.40;72.60;;;;;;5023440;28;20722;-94
2021/08/20 15:31:52;;;;;;;3.10;2.73;;;28.70;72.90;;;;;;5022504;28;20718;-93
2021/08/20 15:34:19;;;;;;;3.17;2.87;;;27.90;76.70;;;;;;5024368;28;20635;-92
2021/08/20 15:36:47;;;;;;;4.33;3.07;;;28.00;78.40;;;;;;5019102;28;20623;-93
2021/08/20 15:39:15;;;;;;;5.70;2.97;;;28.70;76.70;;;;;;5027551;28;20673;-93
2021/08/20 15:42:20;;;;;;;2.97;2.40;;;28.40;75.20;;;;;;5032679;28;20665;-93
2021/08/20 15:44:47;;;;;;;5.40;3.20;;;28.50;79.30;;;;;;5022020;28;20627;-93
2021/08/20 15:47:16;;;;;;;3.57;3.27;;;27.80;77.80;;;;;;5017215;28;20864;-93
2021/08/20 15:49:51;;;;;;;3.53;3.23;;;27.30;77.30;;;;;;5020076;28;20650;-93
2021/08/20 15:52:20;;;;;;;3.90;3.17;;;26.70;82.30;;;;;;5023284;28;20642;-93
2021/08/20 15:54:51;;;;;;;3.47;3.17;;;26.60;84.70;;;;;;5018534;28;20719;-93
2021/08/20 15:57:20;;;;;;;3.17;2.97;;;26.60;84.50;;;;;;5011311;28;20659;-93
2021/08/20 15:59:47;;;;;;;3.20;2.90;;;26.60;81.90;;;;;;5016346;28;21442;-93
2021/08/20 16:02:14;;;;;;;3.70;3.40;;;26.90;81.90;;;;;;5031730;28;21228;-93
2021/08/20 16:04:41;;;;;;;3.20;2.60;;;26.80;85.30;;;;;;5029243;28;20669;-95
2021/08/20 16:07:09;;;;;;;5.40;3.63;;;27.60;84.10;;;;;;5021152;28;20675;-91
2021/08/20 16:09:38;;;;;;;6.50;2.73;;;28.60;78.40;;;;;;5021583;28;20717;-93
2021/08/20 16:12:11;;;;;;;3.20;3.00;;;29.10;79.30;;;;;;5021893;28;20619;-93
2021/08/20 16:14:38;;;;;;;3.90;3.50;;;29.50;78.90;;;;;;5021353;28;21257;-92
2021/08/20 16:17:05;;;;;;;3.30;3.00;;;29.60;77.10;;;;;;5016112;28;20652;-92
2021/08/20 16:19:32;;;;;;;3.13;2.93;;;30.20;77.20;;;;;;5024131;28;20703;-93
2021/08/20 16:21:59;;;;;;;2.70;2.50;;;30.10;74.50;;;;;;5023810;28;20634;-93
2021/08/20 16:24:26;;;;;;;4.13;3.80;;;30.20;74.50;;;;;;5024051;28;20634;-91
2021/08/20 16:26:53;;;;;;;3.73;3.30;;;30.00;73.70;;;;;;5019299;28;20669;-90
2021/08/20 16:29:21;;;;;;;4.20;3.30;;;30.20;75.30;;;;;;5024575;28;20630;-91
2021/08/20 16:31:48;;;;;;;2.67;2.47;;;30.10;75.10;;;;;;5015243;28;20722;-91
2021/08/20 16:34:15;;;;;;;3.53;3.33;;;30.00;73.80;;;;;;5026026;28;20633;-91
2021/08/20 16:36:42;;;;;;;3.23;3.03;;;29.20;75.90;;;;;;5020517;28;20734;-92
2021/08/20 16:39:10;;;;;;;3.93;3.63;;;29.60;75.40;;;;;;5021150;28;21126;-90
2021/08/20 16:41:37;;;;;;;3.50;3.07;;;29.60;75.40;;;;;;5023499;28;20634;-94
2021/08/20 16:44:04;;;;;;;6.00;3.00;;;29.80;73.80;;;;;;5025587;28;20623;-94
2021/08/20 16:46:33;;;;;;;4.43;2.43;;;29.40;74.20;;;;;;5021632;28;21261;-93
2021/08/20 16:49:02;;;;;;;3.20;2.90;;;28.40;75.70;;;;;;5020984;28;20658;-95
2021/08/20 16:51:29;;;;;;;4.33;3.47;;;27.40;80.60;;;;;;5016792;28;20725;-93
2021/08/20 16:53:59;;;;;;;4.13;3.73;;;27.00;81.30;;;;;;5017638;28;21236;-93
2021/08/20 16:56:28;;;;;;;3.43;3.13;;;26.50;84.00;;;;;;5024361;28;20612;-92
2021/08/20 16:59:01;;;;;;;3.63;3.33;;;25.90;86.50;;;;;;5021525;28;20686;-94
2021/08/20 17:01:28;;;;;;;3.73;3.43;;;25.50;88.50;;;;;;5018666;28;21046;-92
2021/08/20 17:03:56;;;;;;;4.23;3.10;;;25.50;90.00;;;;;;5031017;28;20738;-93
2021/08/20 17:06:23;;;;;;;3.40;3.20;;;25.40;90.20;;;;;;5026806;28;20757;-92
2021/08/20 17:08:51;;;;;;;5.33;4.20;;;25.10;90.40;;;;;;5028631;28;20647;-93
2021/08/20 17:11:18;;;;;;;6.73;6.13;;;24.90;92.10;;;;;;5015595;28;20624;-93
2021/08/20 17:13:45;;;;;;;6.17;5.67;;;24.90;91.80;;;;;;5026975;28;20695;-93
2021/08/20 17:16:12;;;;;;;5.77;5.10;;;24.80;91.60;;;;;;5025040;28;20592;-92
2021/08/20 17:18:41;;;;;;;6.60;5.27;;;25.10;91.90;;;;;;5025512;28;20655;-92
2021/08/20 17:21:09;;;;;;;6.70;6.20;;;25.70;91.00;;;;;;5021447;28;20694;-92
2021/08/20 17:23:36;;;;;;;6.60;6.00;;;25.60;91.50;;;;;;5028772;28;20648;-92
2021/08/20 17:26:04;;;;;;;5.10;4.60;;;25.00;92.10;;;;;;5025148;28;20658;-92
2021/08/20 17:28:30;;;;;;;5.17;4.87;;;24.50;93.00;;;;;;5019781;28;20658;-93
2021/08/20 17:30:58;;;;;;;5.40;4.33;;;24.30;94.00;;;;;;5028054;28;21178;-92
2021/08/20 17:33:25;;;;;;;4.00;3.70;;;24.50;93.90;;;;;;5025295;28;20619;-93
2021/08/20 17:35:52;;;;;;;4.43;3.80;;;24.80;93.30;;;;;;5025142;28;20611;-93
2021/08/20 17:38:21;;;;;;;3.90;3.43;;;25.00;93.70;;;;;;5024883;28;20646;-93
2021/08/20 17:40:48;;;;;;;4.93;4.50;;;25.30;92.70;;;;;;5028142;28;20725;-93
2021/08/20 17:43:15;;;;;;;4.50;3.97;;;25.10;94.60;;;;;;5026244;28;20638;-93
2021/08/20 17:45:42;;;;;;;4.50;4.10;;;24.30;96.50;;;;;;5022709;28;20628;-93
2021/08/20 17:48:09;;;;;;;5.57;5.07;;;23.90;99.90;;;;;;5020464;28;20662;-93
2021/08/20 17:50:36;;;;;;;5.10;4.30;;;23.50;99.90;;;;;;5018086;28;20729;-92
2021/08/20 17:53:05;;;;;;;3.90;3.50;;;23.10;99.90;;;;;;5025667;28;20638;-93
2021/08/20 17:55:34;;;;;;;7.23;4.33;;;22.90;99.90;;;;;;5019402;28;20744;-93
2021/08/20 17:58:01;;;;;;;3.57;3.27;;;22.70;99.90;;;;;;5022851;28;20728;-93
2021/08/20 18:00:28;;;;;;;4.33;3.93;;;22.70;99.90;;;;;;5021734;28;20675;-93
2021/08/20 18:02:55;;;;;;;4.00;3.40;;;22.60;99.90;;;;;;5026732;28;20634;-92
2021/08/20 18:05:22;;;;;;;6.27;3.87;;;22.30;99.90;;;;;;5031890;28;20619;-93